Time;durP1;ratioP1;P1;durP2;ratioP2;P2;SDS_P1;SDS_P2;PMS_P1;PMS_P2;Temp;Humidity;BMP_temperature;BMP_pressure;BME280_temperature;BME280_humidity;BME280_pressure;Samples;Min_cycle;Max_cycle;Signal;HPM_P1;HPM_P2
2021/11/12 00:03:22;;;;;;;123.07;52.88;;;2.00;99.90;;;;;;5052344;28;20401;-69
2021/11/12 00:14:03;;;;;;;112.85;53.00;;;1.90;99.90;;;;;;5052606;28;20102;-69
2021/11/12 00:16:29;;;;;;;115.50;52.50;;;1.90;99.90;;;;;;5051835;28;20025;-69
2021/11/12 00:18:54;;;;;;;94.88;46.03;;;1.90;99.90;;;;;;5051930;28;20108;-70
2021/11/12 00:21:20;;;;;;;97.00;48.70;;;1.90;99.90;;;;;;5051788;28;20032;-70
2021/11/12 00:23:46;;;;;;;93.80;47.28;;;1.90;99.90;;;;;;5052377;28;20100;-70
2021/11/12 00:26:12;;;;;;;93.20;46.67;;;1.90;99.90;;;;;;5051959;28;20116;-70
2021/11/12 00:28:48;;;;;;;101.70;50.45;;;1.90;99.90;;;;;;5051497;28;20041;-70
2021/11/12 00:34:42;;;;;;;104.70;50.65;;;1.90;99.90;;;;;;5052046;28;20021;-69
2021/11/12 00:41:41;;;;;;;98.10;48.17;;;1.90;99.90;;;;;;5051443;28;20037;-69
2021/11/12 00:44:23;;;;;;;107.22;50.22;;;1.90;99.90;;;;;;5052060;28;20037;-69
2021/11/12 00:47:00;;;;;;;108.15;49.53;;;1.90;99.90;;;;;;5051948;28;20056;-69
2021/11/12 00:49:29;;;;;;;105.18;48.08;;;1.80;99.90;;;;;;5051275;28;20124;-69
2021/11/12 00:52:11;;;;;;;88.10;46.45;;;1.80;99.90;;;;;;5051512;28;20505;-69
2021/11/12 00:54:38;;;;;;;87.55;44.22;;;1.80;99.90;;;;;;5051436;28;20029;-69
2021/11/12 00:57:03;;;;;;;76.53;41.40;;;1.80;99.90;;;;;;5051800;28;20040;-69
2021/11/12 00:59:29;;;;;;;79.05;40.40;;;1.80;99.90;;;;;;5051605;28;20117;-69
2021/11/12 01:01:55;;;;;;;75.10;40.45;;;1.70;99.90;;;;;;5052432;28;20476;-69
2021/11/12 01:04:22;;;;;;;70.25;39.75;;;1.70;99.90;;;;;;5051329;28;20057;-69
2021/11/12 01:06:49;;;;;;;66.90;36.47;;;1.70;99.90;;;;;;5051351;28;20433;-69
2021/11/12 01:09:18;;;;;;;66.55;36.72;;;1.60;99.90;;;;;;5051008;28;20044;-69
2021/11/12 01:11:46;;;;;;;58.25;34.88;;;1.60;99.90;;;;;;5051716;28;20036;-69
2021/11/12 01:14:15;;;;;;;70.10;37.00;;;1.60;99.90;;;;;;5051404;28;20040;-70
2021/11/12 01:16:41;;;;;;;86.78;41.50;;;1.50;99.90;;;;;;5051659;28;20017;-70
2021/11/12 01:19:08;;;;;;;87.68;43.60;;;1.50;99.90;;;;;;5051519;28;20033;-69
2021/11/12 01:21:33;;;;;;;86.68;42.78;;;1.50;99.90;;;;;;5050851;28;20465;-69
2021/11/12 01:23:59;;;;;;;86.18;43.38;;;1.50;99.90;;;;;;5051427;28;20036;-69
2021/11/12 01:26:26;;;;;;;83.65;42.08;;;1.50;99.90;;;;;;5050188;28;20478;-68
2021/11/12 01:28:52;;;;;;;90.95;44.03;;;1.50;99.90;;;;;;5051155;28;20033;-69
2021/11/12 01:31:20;;;;;;;87.80;43.92;;;1.50;99.90;;;;;;5050392;28;20021;-69
2021/11/12 01:33:46;;;;;;;92.07;43.83;;;1.40;99.90;;;;;;5051656;28;20060;-69
2021/11/12 01:36:24;;;;;;;91.90;45.33;;;1.50;99.90;;;;;;5053982;28;20048;-68
2021/11/12 01:38:51;;;;;;;91.45;44.85;;;1.50;99.90;;;;;;5055333;28;20037;-68
2021/11/12 01:41:17;;;;;;;88.97;45.47;;;1.50;99.90;;;;;;5054513;28;20052;-69
2021/11/12 01:43:47;;;;;;;93.88;44.03;;;1.50;99.90;;;;;;5055535;28;20033;-69
2021/11/12 01:56:40;;;;;;;101.82;43.03;;;1.40;99.90;;;;;;5053806;28;20253;-69
2021/11/12 01:59:11;;;;;;;75.00;38.95;;;1.40;99.90;;;;;;5054133;28;20041;-69
2021/11/12 02:01:48;;;;;;;;;;;1.40;99.90;;;;;;5054066;28;20509;-69
2021/11/12 02:04:16;;;;;;;78.85;38.40;;;1.40;99.90;;;;;;5053240;28;19944;-68
2021/11/12 02:06:43;;;;;;;79.07;39.78;;;1.40;99.90;;;;;;5054150;28;20067;-69
2021/11/12 02:09:20;;;;;;;75.20;38.75;;;1.30;99.90;;;;;;5053995;28;20071;-69
2021/11/12 02:11:55;;;;;;;70.28;37.10;;;1.30;99.90;;;;;;5054484;28;20373;-68
2021/11/12 02:14:23;;;;;;;86.95;44.25;;;1.30;99.90;;;;;;5053025;28;20405;-68
2021/11/12 02:17:08;;;;;;;79.10;41.47;;;1.30;99.90;;;;;;5054054;28;20029;-68
2021/11/12 02:19:35;;;;;;;86.10;41.67;;;1.20;99.90;;;;;;5033495;28;20045;-68
2021/11/12 02:22:12;;;;;;;86.22;41.20;;;1.20;99.90;;;;;;5041612;28;20029;-68
2021/11/12 02:24:46;;;;;;;78.18;40.10;;;1.20;99.90;;;;;;5052794;28;20560;-69
2021/11/12 02:27:12;;;;;;;84.72;41.97;;;1.20;99.90;;;;;;5053566;28;20385;-68
2021/11/12 02:29:47;;;;;;;84.72;42.17;;;1.20;99.90;;;;;;5053374;28;20066;-68
2021/11/12 02:32:19;;;;;;;84.63;42.65;;;1.20;99.90;;;;;;5053514;28;20095;-68
2021/11/12 02:34:47;;;;;;;89.72;43.67;;;1.20;99.90;;;;;;5053589;28;20409;-69
2021/11/12 02:37:13;;;;;;;101.35;45.30;;;1.20;99.90;;;;;;5053500;28;20029;-68
2021/11/12 02:39:40;;;;;;;96.55;44.75;;;1.20;99.90;;;;;;5052946;28;20029;-67
2021/11/12 02:42:06;;;;;;;89.13;43.78;;;1.20;99.90;;;;;;5053581;28;20373;-67
2021/11/12 02:44:35;;;;;;;101.90;43.92;;;1.20;99.90;;;;;;5053263;28;20041;-67
2021/11/12 02:47:00;;;;;;;98.85;46.40;;;1.30;99.90;;;;;;5051480;28;20049;-67
2021/11/12 02:49:27;;;;;;;92.50;45.63;;;1.30;99.90;;;;;;5052639;28;20470;-67
2021/11/12 02:51:54;;;;;;;96.32;45.22;;;1.30;99.90;;;;;;5052797;28;20127;-67
2021/11/12 02:54:19;;;;;;;103.05;46.10;;;1.30;99.90;;;;;;5052411;28;20443;-67
2021/11/12 02:56:45;;;;;;;100.40;46.15;;;1.30;99.90;;;;;;5053362;28;20064;-66
2021/11/12 02:59:12;;;;;;;97.43;45.97;;;1.30;99.90;;;;;;5052740;28;20386;-67
2021/11/12 03:01:42;;;;;;;86.40;42.80;;;1.40;99.90;;;;;;5052377;28;20028;-67
2021/11/12 03:04:08;;;;;;;84.80;42.17;;;1.40;99.90;;;;;;5053361;28;20033;-67
2021/11/12 03:06:35;;;;;;;85.55;41.58;;;1.50;99.90;;;;;;5051942;28;20038;-67
2021/11/12 03:09:05;;;;;;;78.65;40.63;;;1.50;99.90;;;;;;5052769;28;20466;-67
2021/11/12 03:11:30;;;;;;;86.72;44.05;;;1.40;99.90;;;;;;5050953;28;20036;-67
2021/11/12 03:13:56;;;;;;;81.65;42.20;;;1.50;99.90;;;;;;5053040;28;20343;-67
2021/11/12 03:16:22;;;;;;;89.35;42.92;;;1.50;99.90;;;;;;5051827;28;20025;-67
2021/11/12 03:18:48;;;;;;;99.35;42.78;;;1.50;99.90;;;;;;5052292;28;20032;-67
2021/11/12 03:21:18;;;;;;;89.70;42.53;;;1.40;99.90;;;;;;5053042;28;20025;-67
2021/11/12 03:23:49;;;;;;;98.60;42.95;;;1.40;99.90;;;;;;5035347;28;20756;-67
2021/11/12 03:26:25;;;;;;;84.28;43.80;;;1.40;99.90;;;;;;5052507;28;20402;-68
2021/11/12 04:07:17;;;;;;;81.53;41.72;;;1.20;99.90;;;;;;5052291;28;20505;-68
2021/11/12 05:10:21;;;;;;;78.82;38.13;;;0.90;99.90;;;;;;5030943;28;20060;-68
2021/11/12 05:26:48;;;;;;;80.97;38.22;;;0.90;99.90;;;;;;5051418;28;20538;-67
2021/11/12 05:56:17;;;;;;;71.95;38.00;;;0.90;99.90;;;;;;5047788;28;20047;-68
2021/11/12 05:58:43;;;;;;;76.10;38.67;;;0.90;99.90;;;;;;5047833;28;20505;-67
2021/11/12 06:01:09;;;;;;;68.70;35.63;;;0.80;99.90;;;;;;5049738;28;20022;-67
2021/11/12 06:03:34;;;;;;;66.47;36.78;;;0.80;99.90;;;;;;5048509;28;20029;-67
2021/11/12 06:06:00;;;;;;;67.20;34.80;;;0.90;99.90;;;;;;5049473;28;20025;-67
2021/11/12 06:08:26;;;;;;;77.97;33.95;;;0.90;99.90;;;;;;5048856;28;20505;-66
2021/11/12 06:10:52;;;;;;;60.60;33.28;;;0.90;99.90;;;;;;5042489;28;20091;-67
2021/11/12 06:13:17;;;;;;;65.15;35.05;;;0.90;99.90;;;;;;5051349;28;20025;-67
2021/11/12 06:15:43;;;;;;;88.32;35.05;;;0.90;99.90;;;;;;5049313;28;20036;-63
2021/11/12 06:18:10;;;;;;;64.32;34.45;;;0.90;99.90;;;;;;5049460;28;20033;-64
2021/11/12 06:20:36;;;;;;;71.88;36.33;;;0.90;99.90;;;;;;5049213;28;20060;-64
2021/11/12 06:23:03;;;;;;;66.47;34.50;;;0.90;99.90;;;;;;5053994;28;20134;-65
2021/11/12 06:25:28;;;;;;;67.85;35.20;;;0.80;99.90;;;;;;5051261;28;20040;-65
2021/11/12 06:27:54;;;;;;;73.93;36.15;;;0.80;99.90;;;;;;5053791;28;20459;-64
2021/11/12 06:30:24;;;;;;;74.55;37.30;;;0.80;99.90;;;;;;5053453;28;20094;-64
2021/11/12 06:32:50;;;;;;;71.32;36.17;;;0.80;99.90;;;;;;5053790;28;20029;-64
2021/11/12 06:35:16;;;;;;;75.63;37.65;;;0.80;99.90;;;;;;5052694;28;20059;-65
2021/11/12 06:37:42;;;;;;;72.85;37.22;;;0.80;99.90;;;;;;5052882;28;20267;-65
2021/11/12 06:40:10;;;;;;;81.72;39.28;;;0.80;99.90;;;;;;5064207;28;20032;-65
2021/11/12 06:42:48;;;;;;;77.63;39.22;;;0.80;99.90;;;;;;5059305;28;20028;-64
2021/11/12 06:50:37;;;;;;;76.95;38.63;;;0.90;99.90;;;;;;5052075;28;20028;-64
2021/11/12 06:53:04;;;;;;;75.53;36.65;;;0.90;99.90;;;;;;5052828;28;20112;-64
2021/11/12 06:55:30;;;;;;;73.75;36.58;;;1.00;99.90;;;;;;5051798;28;20121;-64
2021/11/12 06:57:56;;;;;;;75.80;36.20;;;1.00;99.90;;;;;;5052123;28;20032;-68
2021/11/12 07:00:24;;;;;;;68.45;36.17;;;1.00;99.90;;;;;;5051720;28;20037;-64
2021/11/12 07:02:51;;;;;;;75.20;38.45;;;1.00;99.90;;;;;;5053003;28;20459;-63
2021/11/12 07:05:17;;;;;;;76.80;38.00;;;1.00;99.90;;;;;;5052503;28;20116;-63
2021/11/12 07:07:43;;;;;;;73.30;37.70;;;1.10;99.90;;;;;;5052024;28;20067;-63
2021/11/12 07:10:09;;;;;;;77.88;37.30;;;1.10;99.90;;;;;;5052534;28;20056;-63
2021/11/12 07:12:35;;;;;;;71.03;35.80;;;1.10;99.90;;;;;;5051869;28;20036;-63
2021/11/12 07:15:01;;;;;;;71.20;35.70;;;1.20;99.90;;;;;;5051966;28;20033;-63
2021/11/12 07:17:27;;;;;;;64.43;34.42;;;1.20;99.90;;;;;;5051407;28;20025;-62
2021/11/12 07:19:52;;;;;;;62.58;32.08;;;1.20;99.90;;;;;;5043313;28;20052;-63
2021/11/12 07:22:18;;;;;;;62.22;33.95;;;1.20;99.90;;;;;;5053355;28;20024;-63
2021/11/12 07:24:44;;;;;;;59.53;31.67;;;1.30;99.90;;;;;;5052584;28;20036;-63
2021/11/12 07:27:11;;;;;;;61.72;33.08;;;1.30;99.90;;;;;;5051576;28;20033;-63
2021/11/12 07:29:39;;;;;;;59.97;34.35;;;1.30;99.90;;;;;;5048884;28;20037;-63
2021/11/12 07:32:06;;;;;;;67.13;35.47;;;1.30;99.90;;;;;;5052222;28;20057;-63
2021/11/12 07:34:33;;;;;;;61.63;33.90;;;1.30;99.90;;;;;;5050627;28;20390;-63
2021/11/12 07:37:07;;;;;;;64.07;34.22;;;1.40;99.90;;;;;;5069698;28;20028;-63
2021/11/12 07:47:01;;;;;;;64.55;34.65;;;1.50;99.90;;;;;;5051607;28;20486;-64
2021/11/12 07:49:27;;;;;;;62.53;33.58;;;1.60;99.90;;;;;;5049352;28;20375;-64
2021/11/12 07:51:52;;;;;;;69.15;36.25;;;1.50;99.90;;;;;;5051541;28;20040;-64
2021/11/12 07:54:19;;;;;;;58.80;33.97;;;1.60;99.90;;;;;;5051515;28;20040;-65
2021/11/12 07:56:45;;;;;;;62.55;34.17;;;1.70;99.90;;;;;;5050587;28;20033;-66
2021/11/12 07:59:11;;;;;;;62.33;33.13;;;1.70;99.90;;;;;;5051308;28;20485;-67
2021/11/12 08:01:37;;;;;;;63.08;32.75;;;1.70;99.90;;;;;;5050785;28;20385;-66
2021/11/12 08:04:05;;;;;;;61.92;32.90;;;1.70;99.90;;;;;;5050113;28;20029;-66
2021/11/12 08:06:32;;;;;;;58.40;32.80;;;1.80;99.90;;;;;;5050662;28;20028;-66
2021/11/12 08:09:09;;;;;;;59.90;32.03;;;1.90;99.90;;;;;;5051513;28;20041;-66
2021/11/12 08:11:44;;;;;;;60.50;34.38;;;1.80;99.90;;;;;;5050498;28;20543;-66
2021/11/12 08:14:14;;;;;;;76.47;37.30;;;1.80;99.90;;;;;;5051343;28;20044;-65
2021/11/12 08:19:23;;;;;;;63.72;34.17;;;1.90;99.90;;;;;;5049278;28;20033;-65
2021/11/12 08:42:36;;;;;;;50.58;28.90;;;2.40;99.90;;;;;;5050532;28;20090;-68
2021/11/12 08:45:11;;;;;;;54.60;30.10;;;2.40;99.90;;;;;;5050811;28;20068;-67
2021/11/12 08:47:40;;;;;;;47.17;28.17;;;2.50;99.90;;;;;;5049728;28;20104;-66
2021/11/12 08:50:12;;;;;;;47.50;27.77;;;2.50;99.90;;;;;;5048580;28;20043;-66
2021/11/12 08:52:38;;;;;;;49.90;29.38;;;2.50;99.90;;;;;;5050230;28;20115;-66
2021/11/12 08:55:07;;;;;;;49.38;29.30;;;2.50;99.90;;;;;;5050918;28;20029;-66
2021/11/12 08:57:33;;;;;;;51.83;28.13;;;2.50;99.90;;;;;;5049664;28;20020;-64
2021/11/12 08:59:59;;;;;;;53.38;29.85;;;2.60;99.90;;;;;;5048653;28;20490;-67
2021/11/12 09:02:27;;;;;;;54.38;31.08;;;2.60;99.90;;;;;;5050262;28;20029;-65
2021/11/12 09:04:56;;;;;;;52.47;29.95;;;2.60;99.90;;;;;;5056724;28;20035;-65
2021/11/12 09:07:23;;;;;;;49.05;29.58;;;2.60;99.90;;;;;;5065959;28;20037;-64
2021/11/12 09:09:51;;;;;;;43.85;27.05;;;2.70;99.90;;;;;;5049673;28;20047;-64
2021/11/12 09:12:21;;;;;;;42.17;26.65;;;2.70;99.90;;;;;;5049686;28;20025;-64
2021/11/12 09:14:48;;;;;;;46.75;28.45;;;2.90;99.90;;;;;;5049548;28;20565;-65
2021/11/12 09:17:16;;;;;;;54.25;29.38;;;2.90;99.90;;;;;;5049554;28;20033;-64
2021/11/12 09:19:50;;;;;;;48.33;30.02;;;2.90;99.90;;;;;;5049321;28;20037;-64
2021/11/12 09:22:21;;;;;;;45.53;29.23;;;2.90;99.90;;;;;;5048573;28;20036;-64
2021/11/12 09:24:48;;;;;;;;;;;3.10;99.90;;;;;;5030148;28;20079;-64
2021/11/12 09:27:14;;;;;;;48.47;27.80;;;3.10;99.90;;;;;;5042632;28;19980;-64
2021/11/12 09:29:42;;;;;;;50.83;28.95;;;3.20;99.90;;;;;;5048648;28;20036;-65
2021/11/12 09:32:08;;;;;;;48.40;28.48;;;3.10;99.90;;;;;;5048811;28;20481;-64
2021/11/12 09:34:37;;;;;;;48.67;29.48;;;3.10;99.90;;;;;;5046580;28;20033;-65
2021/11/12 09:37:05;;;;;;;41.22;27.05;;;3.20;99.90;;;;;;5049512;28;20025;-64
2021/11/12 09:39:32;;;;;;;40.17;27.17;;;3.30;99.90;;;;;;5049776;28;20033;-65
2021/11/12 09:41:59;;;;;;;50.55;29.30;;;3.30;99.90;;;;;;5050375;28;20032;-64
2021/11/12 09:44:27;;;;;;;45.78;27.10;;;3.30;99.90;;;;;;5049378;28;20040;-64
2021/11/12 09:46:53;;;;;;;44.38;27.02;;;3.30;99.90;;;;;;5050171;28;20505;-66
2021/11/12 09:49:21;;;;;;;40.53;25.23;;;3.40;99.90;;;;;;5049170;28;20029;-66
2021/11/12 09:51:46;;;;;;;40.47;26.02;;;3.40;99.90;;;;;;5048101;28;20029;-65
2021/11/12 09:54:12;;;;;;;42.78;26.30;;;3.60;99.90;;;;;;5054407;28;20390;-65
2021/11/12 09:56:38;;;;;;;44.35;27.85;;;3.60;99.90;;;;;;5050529;28;20017;-65
2021/11/12 09:59:05;;;;;;;45.38;27.25;;;3.60;99.90;;;;;;5053346;28;20041;-65
2021/11/12 10:01:34;;;;;;;41.05;26.30;;;3.70;99.90;;;;;;5052792;28;20032;-65
2021/11/12 10:04:05;;;;;;;39.50;24.75;;;3.70;99.90;;;;;;5053368;28;20025;-65
2021/11/12 10:06:34;;;;;;;42.72;27.48;;;3.70;99.90;;;;;;5053359;28;20178;-66
2021/11/12 10:09:01;;;;;;;41.47;26.38;;;3.80;99.90;;;;;;5052732;28;20033;-65
2021/11/12 10:11:33;;;;;;;44.28;28.00;;;3.80;99.90;;;;;;5053365;28;20033;-65
2021/11/12 10:14:00;;;;;;;42.60;28.45;;;3.80;99.90;;;;;;5053725;28;20044;-65
2021/11/12 10:16:35;;;;;;;39.90;28.20;;;3.80;99.90;;;;;;5053655;28;20029;-65
2021/11/12 10:19:12;;;;;;;51.30;27.05;;;3.90;99.90;;;;;;5053968;28;20462;-67
2021/11/12 10:21:44;;;;;;;45.13;27.35;;;3.90;99.90;;;;;;5052905;28;20044;-65
2021/11/12 10:24:17;;;;;;;40.28;26.02;;;4.10;99.90;;;;;;5053625;28;20033;-66
2021/11/12 10:26:49;;;;;;;44.83;27.63;;;4.20;99.90;;;;;;5052950;28;20044;-65
2021/11/12 10:29:18;;;;;;;38.45;25.63;;;4.30;99.90;;;;;;5053459;28;20059;-66
2021/11/12 10:31:48;;;;;;;41.00;26.60;;;4.30;99.90;;;;;;5052219;28;20041;-66
2021/11/12 10:34:21;;;;;;;49.58;27.33;;;4.40;99.90;;;;;;5054215;28;20076;-66
2021/11/12 10:36:53;;;;;;;42.53;26.65;;;4.50;99.90;;;;;;5068593;28;20025;-66
2021/11/12 10:39:37;;;;;;;47.03;28.00;;;4.50;99.90;;;;;;5053413;28;20040;-66
2021/11/12 10:42:11;;;;;;;44.47;27.50;;;4.50;99.90;;;;;;5053033;28;20112;-66
2021/11/12 10:44:59;;;;;;;41.72;27.02;;;4.60;99.90;;;;;;5052577;28;20116;-66
2021/11/12 10:47:29;;;;;;;48.10;28.75;;;4.60;99.90;;;;;;5052174;28;20051;-67
2021/11/12 10:50:06;;;;;;;39.83;27.55;;;4.60;99.90;;;;;;5053283;28;20060;-67
2021/11/12 10:52:33;;;;;;;43.45;27.17;;;4.70;99.90;;;;;;5052105;28;20434;-67
2021/11/12 10:55:20;;;;;;;45.47;27.85;;;4.80;99.90;;;;;;5053268;28;20025;-66
2021/11/12 10:58:08;;;;;;;43.90;26.60;;;5.00;99.90;;;;;;5051507;28;20013;-65
2021/11/12 11:00:45;;;;;;;40.58;26.88;;;5.10;99.90;;;;;;5052375;28;20041;-66
2021/11/12 11:03:22;;;;;;;42.90;26.90;;;5.20;99.90;;;;;;5052749;28;20037;-65
2021/11/12 11:05:58;;;;;;;41.20;26.15;;;5.20;99.90;;;;;;5063286;28;20025;-65
2021/11/12 11:08:34;;;;;;;36.17;25.63;;;5.30;99.90;;;;;;5051198;28;20037;-65
2021/11/12 11:11:04;;;;;;;41.97;27.33;;;5.40;99.90;;;;;;5053031;28;20071;-65
2021/11/12 11:13:36;;;;;;;44.83;27.65;;;5.40;99.90;;;;;;5051084;28;20025;-65
2021/11/12 11:16:20;;;;;;;49.20;28.90;;;5.40;99.90;;;;;;5052234;28;20037;-65
2021/11/12 11:18:51;;;;;;;44.45;28.05;;;5.50;99.90;;;;;;5041507;28;20033;-65
2021/11/12 11:24:05;;;;;;;45.58;28.02;;;5.40;99.90;;;;;;5051909;28;20120;-65
2021/11/12 11:26:37;;;;;;;47.38;29.05;;;5.50;99.90;;;;;;5051839;28;20064;-65
2021/11/12 11:29:04;;;;;;;45.72;28.90;;;5.40;99.90;;;;;;5051797;28;20036;-65
2021/11/12 11:31:31;;;;;;;44.22;28.75;;;5.50;99.90;;;;;;5051682;28;20146;-65
2021/11/12 11:33:58;;;;;;;47.95;29.00;;;5.50;99.90;;;;;;5051565;28;20033;-65
2021/11/12 11:36:34;;;;;;;44.40;30.13;;;5.50;99.90;;;;;;5051198;28;20390;-65
2021/11/12 11:39:06;;;;;;;43.65;29.23;;;5.50;99.90;;;;;;5051904;28;20037;-64
2021/11/12 11:41:32;;;;;;;51.80;31.75;;;5.40;99.90;;;;;;5051406;28;20045;-65
2021/11/12 11:43:58;;;;;;;52.60;33.15;;;5.40;99.90;;;;;;5051037;28;20512;-65
2021/11/12 11:46:45;;;;;;;46.55;30.77;;;5.40;99.90;;;;;;5051593;28;20065;-65
2021/11/12 11:49:14;;;;;;;45.33;30.48;;;5.40;99.90;;;;;;5045155;28;20478;-65
2021/11/12 11:51:54;;;;;;;49.58;30.35;;;5.40;99.90;;;;;;5051255;28;20044;-65
2021/11/12 11:54:21;;;;;;;;;;;5.50;99.90;;;;;;5052473;28;20033;-64
2021/11/12 11:56:51;;;;;;;46.35;28.60;;;5.50;99.90;;;;;;5051450;28;20107;-65
2021/11/12 11:59:28;;;;;;;51.85;31.27;;;5.50;99.90;;;;;;5051563;28;20039;-65
2021/11/12 12:01:56;;;;;;;53.90;31.52;;;5.60;99.90;;;;;;5051458;28;20040;-64
2021/11/12 12:04:35;;;;;;;44.80;30.20;;;5.70;99.90;;;;;;5051708;28;20446;-65
2021/11/12 12:07:04;;;;;;;52.88;30.88;;;5.80;99.90;;;;;;5051999;28;20029;-65
2021/11/12 12:09:49;;;;;;;46.85;30.52;;;5.90;99.90;;;;;;5050388;28;20533;-65
2021/11/12 12:12:35;;;;;;;49.47;30.80;;;6.00;99.90;;;;;;5051671;28;20778;-65
2021/11/12 12:15:03;;;;;;;48.78;30.98;;;6.00;99.90;;;;;;5051268;28;20036;-65
2021/11/12 12:17:34;;;;;;;55.33;33.15;;;6.00;99.90;;;;;;5048602;28;20025;-65
2021/11/12 13:25:43;;;;;;;62.50;39.60;;;5.70;99.90;;;;;;5050047;28;20030;-75
2021/11/12 13:28:09;;;;;;;70.35;40.78;;;5.70;99.90;;;;;;5050589;28;20058;-82
2021/11/12 13:30:35;;;;;;;71.50;41.53;;;5.60;99.90;;;;;;5049602;28;20553;-76
2021/11/12 13:33:02;;;;;;;64.40;38.78;;;5.60;99.90;;;;;;5054444;28;20061;-75
2021/11/12 13:35:38;;;;;;;68.25;42.13;;;5.50;99.90;;;;;;5052868;28;20351;-74
2021/11/12 13:38:04;;;;;;;67.32;40.75;;;5.70;99.90;;;;;;5054519;28;20472;-75
2021/11/12 13:40:34;;;;;;;72.80;41.95;;;5.60;99.90;;;;;;5053567;28;20037;-75
2021/11/12 13:43:01;;;;;;;83.68;42.75;;;5.70;99.90;;;;;;5054570;28;20037;-76
2021/11/12 13:45:29;;;;;;;69.40;41.22;;;5.70;99.90;;;;;;5053523;28;20509;-74
2021/11/12 13:48:12;;;;;;;68.97;41.53;;;5.70;99.90;;;;;;5054939;28;20442;-76
2021/11/12 13:50:41;;;;;;;71.05;41.60;;;5.70;99.90;;;;;;5053154;28;20107;-66
2021/11/12 13:53:07;;;;;;;69.63;42.00;;;5.70;99.90;;;;;;5053799;28;20033;-69
2021/11/12 13:55:38;;;;;;;70.68;42.05;;;5.70;99.90;;;;;;5053395;28;20056;-70
2021/11/12 13:58:05;;;;;;;70.97;42.13;;;5.70;99.90;;;;;;5054271;28;20098;-70
2021/11/12 14:00:36;;;;;;;68.75;40.53;;;5.60;99.90;;;;;;5053354;28;20370;-70
2021/11/12 14:03:10;;;;;;;67.60;41.78;;;5.50;99.90;;;;;;5053965;28;20065;-70
2021/11/12 14:05:39;;;;;;;70.32;41.45;;;5.50;99.90;;;;;;5053357;28;20017;-70
2021/11/12 14:08:15;;;;;;;67.22;40.30;;;5.40;99.90;;;;;;5053966;28;20083;-70
2021/11/12 14:10:44;;;;;;;67.55;41.38;;;5.40;99.90;;;;;;5053361;28;20389;-69
2021/11/12 14:13:12;;;;;;;70.03;41.45;;;5.30;99.90;;;;;;5053925;28;20036;-69
2021/11/12 14:15:57;;;;;;;68.55;40.75;;;5.10;99.90;;;;;;5053046;28;20040;-69
2021/11/12 14:18:35;;;;;;;72.68;41.53;;;5.10;99.90;;;;;;5056630;28;20064;-66
2021/11/12 14:24:09;;;;;;;73.35;42.20;;;5.00;99.90;;;;;;5052761;28;20462;-65
2021/11/12 14:26:49;;;;;;;71.68;41.38;;;4.80;99.90;;;;;;5053171;28;20139;-64
2021/11/12 14:40:59;;;;;;;82.55;45.25;;;4.50;99.90;;;;;;5044392;28;20057;-64
2021/11/12 14:51:57;;;;;;;82.45;44.38;;;4.30;99.90;;;;;;5052411;28;20041;-65
2021/11/12 14:55:01;;;;;;;80.88;44.22;;;4.20;99.90;;;;;;5052950;28;20376;-65
2021/11/12 14:57:32;;;;;;;83.38;43.47;;;4.20;99.90;;;;;;5052881;28;20032;-65
2021/11/12 15:00:05;;;;;;;84.20;43.13;;;4.10;99.90;;;;;;5053115;28;20043;-65
2021/11/12 15:02:33;;;;;;;75.20;40.28;;;4.10;99.90;;;;;;5069547;28;20039;-66
2021/11/12 15:04:59;;;;;;;76.07;39.38;;;4.00;99.90;;;;;;5058749;28;20462;-65
2021/11/12 15:07:28;;;;;;;72.75;40.78;;;4.00;99.90;;;;;;5053051;28;20025;-65
2021/11/12 15:09:55;;;;;;;70.07;37.63;;;4.00;99.90;;;;;;5052929;28;20029;-65
2021/11/12 15:12:22;;;;;;;75.32;40.22;;;3.90;99.90;;;;;;5053079;28;20040;-65
2021/11/12 15:14:53;;;;;;;69.00;38.95;;;3.80;99.90;;;;;;5052047;28;20024;-65
2021/11/12 15:17:19;;;;;;;71.45;36.17;;;3.70;99.90;;;;;;5051432;28;20029;-65
2021/11/12 15:19:47;;;;;;;65.88;35.17;;;3.70;99.90;;;;;;5051370;28;20091;-65
2021/11/12 15:25:29;;;;;;;63.92;35.17;;;3.40;99.90;;;;;;5052163;28;20492;-65
2021/11/12 15:30:20;;;;;;;66.60;36.00;;;3.30;99.90;;;;;;5051987;28;20124;-65
2021/11/12 15:33:06;;;;;;;59.58;34.80;;;3.20;99.90;;;;;;5051666;28;20533;-65
2021/11/12 15:35:33;;;;;;;68.90;38.03;;;3.20;99.90;;;;;;5051148;28;20033;-65
2021/11/12 15:48:12;;;;;;;86.15;40.90;;;2.90;99.90;;;;;;5061892;28;20029;-67
2021/11/12 16:14:49;;;;;;;75.78;40.42;;;2.70;99.90;;;;;;5050997;28;20083;-65
2021/11/12 16:19:57;;;;;;;82.93;40.50;;;2.70;99.90;;;;;;5050755;28;20461;-65
2021/11/12 16:28:00;;;;;;;89.57;42.25;;;2.70;99.90;;;;;;5045534;28;20670;-65
2021/11/12 16:30:37;;;;;;;80.80;41.33;;;2.60;99.90;;;;;;5051184;28;20064;-66
2021/11/12 16:33:05;;;;;;;87.50;40.05;;;2.70;99.90;;;;;;5051414;28;20028;-65
2021/11/12 16:35:34;;;;;;;75.43;39.13;;;2.70;99.90;;;;;;5049320;28;20029;-66
2021/11/12 16:38:25;;;;;;;75.18;39.17;;;2.60;99.90;;;;;;5049706;28;20055;-66
2021/11/12 16:40:55;;;;;;;69.25;35.95;;;2.60;99.90;;;;;;5050139;28;20053;-65
2021/11/12 16:43:32;;;;;;;77.70;38.08;;;2.60;99.90;;;;;;5051087;28;20090;-65
2021/11/12 16:48:45;;;;;;;79.20;40.55;;;2.50;99.90;;;;;;5050970;28;20033;-65
2021/11/12 16:51:31;;;;;;;79.43;40.08;;;2.50;99.90;;;;;;5051196;28;20045;-64
2021/11/12 16:56:45;;;;;;;70.43;36.50;;;2.60;99.90;;;;;;5050989;28;20466;-65
2021/11/12 17:04:36;;;;;;;74.32;36.22;;;2.40;99.90;;;;;;5050681;28;20056;-65
2021/11/12 17:17:28;;;;;;;89.93;41.42;;;2.30;99.90;;;;;;5050542;28;20386;-64
2021/11/12 17:22:57;;;;;;;85.85;40.15;;;2.30;99.90;;;;;;5050857;28;20522;-64
2021/11/12 17:45:44;;;;;;;64.93;35.10;;;2.20;99.90;;;;;;5049115;28;20142;-64
2021/11/12 17:47:35;;;;;;;67.57;32.72;;;2.30;99.90;;;;;;5046208;28;20045;-65
2021/11/12 18:03:35;;;;;;;75.28;35.25;;;2.10;99.90;;;;;;5030550;28;20040;-65
2021/11/12 18:06:09;;;;;;;72.78;37.05;;;2.10;99.90;;;;;;5050190;28;20140;-65
2021/11/12 21:44:00;;;;;;;39.10;25.10;;;1.10;99.90;;;;;;5034881;28;20397;-64
2021/11/12 21:46:27;;;;;;;43.33;26.75;;;1.10;99.90;;;;;;5030434;28;20081;-65
2021/11/12 21:48:58;;;;;;;45.45;27.90;;;1.00;99.90;;;;;;5029996;28;20084;-64
2021/11/12 21:51:28;;;;;;;50.80;29.70;;;0.90;99.90;;;;;;5029523;28;20037;-65
2021/11/12 21:53:57;;;;;;;48.42;29.77;;;0.90;99.90;;;;;;5048594;28;20079;-65
2021/11/12 21:56:23;;;;;;;42.90;27.30;;;0.80;99.90;;;;;;5054418;28;20029;-65
2021/11/12 21:58:49;;;;;;;44.00;28.45;;;0.70;99.90;;;;;;5053005;28;20465;-65
2021/11/12 22:01:16;;;;;;;50.40;29.73;;;0.60;99.90;;;;;;5054811;28;20675;-65
2021/11/12 22:03:42;;;;;;;51.88;30.25;;;0.60;99.90;;;;;;5039019;28;20034;-65
2021/11/12 22:06:09;;;;;;;61.08;35.72;;;0.60;99.90;;;;;;5037663;28;20398;-65
2021/11/12 22:08:34;;;;;;;51.13;31.13;;;0.60;99.90;;;;;;5052161;28;20080;-65
2021/11/12 22:11:03;;;;;;;48.60;30.15;;;0.50;99.90;;;;;;5053541;28;20519;-64
2021/11/12 22:13:29;;;;;;;51.15;30.80;;;0.60;99.90;;;;;;5042633;28;20022;-65
2021/11/12 22:15:57;;;;;;;55.22;32.15;;;0.60;99.90;;;;;;5033789;28;20060;-65
2021/11/12 22:18:22;;;;;;;52.30;31.38;;;0.60;99.90;;;;;;5034263;28;20018;-64
2021/11/12 22:20:49;;;;;;;59.40;34.42;;;0.50;99.90;;;;;;5048374;28;20030;-64
2021/11/12 22:23:15;;;;;;;63.38;35.25;;;0.50;99.90;;;;;;5049749;28;20497;-64
2021/11/12 22:25:41;;;;;;;65.45;36.83;;;0.50;99.90;;;;;;5052863;28;20458;-65
2021/11/12 22:28:07;;;;;;;70.13;37.08;;;0.50;99.90;;;;;;5041210;28;20031;-65
2021/11/12 22:30:35;;;;;;;70.10;36.45;;;0.60;99.90;;;;;;5032727;28;20121;-65
2021/11/12 22:33:01;;;;;;;65.75;36.42;;;0.60;99.90;;;;;;5039280;28;20036;-65
2021/11/12 22:35:27;;;;;;;66.72;36.10;;;0.60;99.90;;;;;;5053535;28;20017;-65
2021/11/12 22:37:52;;;;;;;61.60;33.63;;;0.60;99.90;;;;;;5052827;28;20037;-65
2021/11/12 22:40:18;;;;;;;64.55;36.50;;;0.60;99.90;;;;;;5053673;28;20132;-65
2021/11/12 22:42:44;;;;;;;66.80;37.83;;;0.60;99.90;;;;;;5048309;28;20099;-66
2021/11/12 22:45:10;;;;;;;67.32;36.70;;;0.60;99.90;;;;;;5033548;28;20053;-66
2021/11/12 22:47:36;;;;;;;68.18;37.95;;;0.60;99.90;;;;;;5033087;28;20107;-66
2021/11/12 22:50:05;;;;;;;73.28;37.90;;;0.60;99.90;;;;;;5033474;28;20029;-66
2021/11/12 22:52:33;;;;;;;67.82;36.03;;;0.60;99.90;;;;;;5034951;28;20040;-66
2021/11/12 22:54:58;;;;;;;84.95;40.50;;;0.60;99.90;;;;;;5053279;28;20098;-66
2021/11/12 22:57:24;;;;;;;72.90;39.80;;;0.50;99.90;;;;;;5043241;28;20462;-66
2021/11/12 22:59:50;;;;;;;77.47;40.17;;;0.50;99.90;;;;;;5045321;28;20033;-66
2021/11/12 23:02:16;;;;;;;73.20;37.80;;;0.50;99.90;;;;;;5052546;28;20099;-66
2021/11/12 23:04:41;;;;;;;76.03;40.30;;;0.50;99.90;;;;;;5032090;28;20037;-65
2021/11/12 23:07:07;;;;;;;63.25;36.53;;;0.50;99.90;;;;;;5033093;28;20084;-66